createdAt,value
2023-05-02T01:37:03.616Z,10.55
2023-05-02T01:38:03.524Z,10.51
2023-05-02T01:39:03.448Z,10.56
2023-05-02T01:40:03.396Z,10.56
2023-05-02T01:41:03.294Z,10.41
2023-05-02T01:42:03.200Z,10.33
2023-05-02T01:43:03.122Z,10.36
2023-05-02T01:44:04.454Z,10.26
2023-05-02T01:45:02.964Z,10.22
2023-05-02T01:46:03.128Z,10.23
2023-05-02T01:47:02.872Z,10.19
2023-05-02T01:48:02.746Z,10.25
2023-05-02T01:49:02.637Z,10.34
2023-05-02T01:50:02.658Z,10.33
2023-05-02T01:51:02.479Z,10.36
2023-05-02T01:52:02.394Z,10.31
2023-05-02T01:53:02.336Z,10.18
2023-05-02T01:54:02.262Z,10.18
2023-05-02T01:55:02.192Z,10.25
2023-05-02T01:56:02.082Z,10.26
2023-05-02T01:57:01.988Z,10.18
2023-05-02T01:58:01.911Z,10.15
2023-05-02T01:59:01.826Z,10.15
2023-05-02T02:00:02.135Z,10.28
2023-05-02T02:01:01.743Z,10.29
2023-05-02T02:02:01.586Z,10.31
2023-05-02T02:03:01.541Z,10.34
2023-05-02T02:04:01.492Z,10.28
2023-05-02T02:05:01.345Z,10.11
2023-05-02T02:06:01.275Z,10.10
2023-05-02T02:07:01.174Z,10.00
2023-05-02T02:08:01.441Z,10.04
2023-05-02T02:09:01.093Z,10.10
2023-05-02T02:10:01.181Z,10.01
2023-05-02T02:11:00.851Z,10.04
2023-05-02T02:12:00.769Z,10.06
2023-05-02T02:13:00.685Z,10.06
2023-05-02T02:14:00.605Z,9.98
2023-05-02T02:15:00.524Z,9.93
2023-05-02T02:16:00.436Z,9.90
2023-05-02T02:17:00.447Z,9.90
2023-05-02T02:20:25.906Z,9.82
2023-05-02T02:22:33.371Z,9.71
2023-05-02T02:24:55.757Z,9.79
2023-05-02T02:25:55.660Z,9.68
2023-05-02T02:26:55.577Z,9.68
2023-05-02T02:28:37.981Z,9.56
2023-05-02T02:29:37.909Z,9.61
2023-05-02T02:30:37.833Z,9.60
2023-05-02T02:31:37.726Z,9.45
2023-05-02T02:32:37.794Z,9.45
2023-05-02T02:33:37.616Z,9.43
2023-05-02T02:34:37.484Z,9.52
2023-05-02T02:35:37.402Z,9.43
2023-05-02T02:36:37.318Z,9.40
2023-05-02T02:37:37.234Z,9.45
2023-05-02T02:38:37.157Z,9.42
2023-05-02T02:39:37.072Z,9.43
2023-05-02T02:40:37.012Z,9.42
2023-05-02T02:41:36.909Z,9.45
2023-05-02T02:42:36.838Z,9.42
2023-05-02T02:43:36.754Z,9.38
2023-05-02T02:44:36.666Z,9.32
2023-05-02T02:45:36.678Z,9.43
2023-05-02T02:46:36.561Z,9.42
2023-05-02T02:47:36.446Z,9.43
2023-05-02T02:48:36.349Z,9.37
2023-05-02T02:49:36.260Z,9.35
2023-05-02T02:50:36.168Z,9.28
2023-05-02T02:51:36.094Z,9.29
2023-05-02T02:52:36.008Z,9.34
2023-05-02T02:53:35.972Z,9.28
2023-05-02T02:54:35.842Z,9.34
2023-05-02T02:55:35.766Z,9.20
2023-05-02T02:56:35.699Z,9.28
2023-05-02T02:57:35.600Z,9.40
2023-05-02T02:58:35.510Z,9.35
2023-05-02T02:59:35.431Z,9.31
2023-05-02T03:00:35.352Z,9.35
2023-05-02T03:01:35.307Z,9.12
2023-05-02T03:02:35.277Z,9.13
2023-05-02T03:03:35.126Z,9.09
2023-05-02T03:04:35.019Z,9.06
2023-05-02T03:05:34.946Z,9.10
2023-05-02T03:06:34.884Z,9.13
2023-05-02T03:07:34.781Z,9.14
2023-05-02T03:08:34.690Z,9.16
2023-05-02T03:09:34.613Z,9.12
2023-05-02T03:10:34.531Z,9.05
2023-05-02T03:11:34.445Z,9.12
2023-05-02T03:12:34.492Z,9.10
2023-05-02T03:13:34.283Z,9.00
2023-05-02T03:14:34.296Z,8.98
2023-05-02T03:15:34.145Z,9.09
2023-05-02T03:16:34.222Z,9.06
2023-05-02T03:17:33.977Z,9.02
2023-05-02T03:18:33.876Z,8.98
2023-05-02T03:19:33.788Z,9.00
2023-05-02T03:20:33.706Z,8.93
2023-05-02T03:21:33.628Z,8.91
2023-05-02T03:22:33.539Z,8.87
2023-05-02T03:23:33.460Z,8.90
2023-05-02T03:24:33.377Z,8.90
2023-05-02T03:25:33.297Z,8.87
2023-05-02T03:26:33.216Z,8.84
2023-05-02T03:27:33.126Z,8.91
2023-05-02T03:28:33.073Z,8.98
2023-05-02T03:29:32.978Z,9.00
2023-05-02T03:30:32.899Z,9.06
2023-05-02T03:31:32.863Z,9.06
2023-05-02T03:32:32.736Z,9.02
2023-05-02T03:33:32.894Z,8.95
2023-05-02T03:34:32.553Z,9.05
2023-05-02T03:35:32.478Z,8.98
2023-05-02T03:36:32.388Z,8.90
2023-05-02T03:37:32.309Z,8.97
2023-05-02T03:38:32.224Z,8.87
2023-05-02T03:39:32.189Z,8.87
2023-05-02T03:40:32.057Z,8.87
2023-05-02T03:41:31.981Z,8.80
2023-05-02T03:42:31.898Z,8.82
2023-05-02T03:43:31.866Z,8.69
2023-05-02T03:44:31.816Z,8.65
2023-05-02T03:45:31.645Z,8.69
2023-05-02T03:46:31.585Z,8.68
2023-05-02T03:47:31.556Z,8.65
2023-05-02T03:48:31.399Z,8.65
2023-05-02T03:49:31.618Z,8.58
2023-05-02T03:50:31.234Z,8.54
2023-05-02T03:51:31.150Z,8.57
2023-05-02T03:52:31.472Z,8.55
2023-05-02T03:53:31.185Z,8.47
2023-05-02T03:54:30.906Z,8.65
2023-05-02T03:55:30.820Z,8.57
2023-05-02T03:56:30.743Z,8.58
2023-05-02T03:57:30.702Z,8.57
2023-05-02T03:58:30.576Z,8.66
2023-05-02T03:59:30.505Z,8.69
2023-05-02T04:00:30.537Z,8.55
2023-05-02T04:01:30.331Z,8.60
2023-05-02T04:02:30.564Z,8.60
2023-05-02T04:03:30.302Z,8.61
2023-05-02T04:04:30.147Z,8.66
2023-05-02T04:05:30.007Z,8.68
2023-05-02T04:06:29.939Z,8.76
2023-05-02T04:07:29.839Z,8.72
2023-05-02T04:08:29.750Z,8.68
2023-05-02T04:09:29.667Z,8.66
2023-05-02T04:10:29.586Z,8.69
2023-05-02T04:11:29.502Z,8.72
2023-05-02T04:12:29.419Z,8.69
2023-05-02T04:13:29.361Z,8.73
2023-05-02T04:14:29.256Z,8.73
2023-05-02T04:15:29.173Z,8.66
2023-05-02T04:16:29.174Z,8.72
2023-05-02T04:17:29.164Z,8.61
2023-05-02T04:18:28.923Z,8.77
2023-05-02T04:19:28.845Z,8.68
2023-05-02T04:20:28.759Z,8.68
2023-05-02T04:21:28.674Z,8.69
2023-05-02T04:22:28.595Z,8.65
2023-05-02T04:23:28.511Z,8.70
2023-05-02T04:24:28.430Z,8.70
2023-05-02T04:25:28.357Z,8.68
2023-05-02T04:26:28.264Z,8.65
2023-05-02T04:27:28.286Z,8.77
2023-05-02T04:28:28.100Z,8.77
2023-05-02T04:29:28.022Z,8.79
2023-05-02T04:30:28.236Z,8.84
2023-05-02T04:31:27.922Z,8.94
2023-05-02T04:32:27.822Z,8.88
2023-05-02T04:33:27.686Z,9.02
2023-05-02T04:34:27.600Z,9.00
2023-05-02T04:35:27.526Z,9.10
2023-05-02T04:36:27.442Z,9.13
2023-05-02T04:37:27.355Z,9.14
2023-05-02T04:38:27.278Z,9.16
2023-05-02T04:39:27.388Z,9.10
2023-05-02T04:40:27.105Z,9.22
2023-05-02T04:41:27.075Z,9.22
2023-05-02T04:43:19.432Z,9.42
2023-05-02T04:44:19.494Z,9.40
2023-05-02T04:45:19.258Z,9.50
2023-05-02T04:46:19.220Z,9.46
2023-05-02T04:47:19.096Z,9.47
2023-05-02T04:48:19.036Z,9.55
2023-05-02T04:49:18.935Z,9.60
2023-05-02T04:50:18.855Z,9.53
2023-05-02T04:51:18.768Z,9.72
2023-05-02T04:52:18.695Z,9.75
2023-05-02T04:53:18.603Z,9.75
2023-05-02T04:54:18.530Z,9.83
2023-05-02T04:55:18.456Z,9.82
2023-05-02T04:56:18.365Z,9.88
2023-05-02T04:57:19.567Z,9.92
2023-05-02T04:58:18.196Z,9.97
2023-05-02T04:59:18.114Z,9.97
2023-05-02T05:00:18.040Z,10.03
2023-05-02T05:01:18.021Z,10.01
2023-05-02T05:02:18.034Z,10.08
2023-05-02T05:03:17.929Z,10.21
2023-05-02T05:04:17.801Z,10.22
2023-05-02T05:05:17.688Z,10.26
2023-05-02T05:06:17.569Z,10.26
2023-05-02T05:07:17.467Z,10.33
2023-05-02T05:08:17.384Z,10.40
2023-05-02T05:09:17.303Z,10.40
2023-05-02T05:10:17.224Z,10.44
2023-05-02T05:11:17.144Z,10.58
2023-05-02T05:12:17.059Z,10.60
2023-05-02T05:13:16.978Z,10.67
2023-05-02T05:14:16.900Z,10.75
2023-05-02T05:15:16.847Z,10.87
2023-05-02T05:16:16.755Z,10.78
2023-05-02T05:17:17.053Z,10.84
2023-05-02T05:18:16.619Z,10.93
2023-05-02T05:19:16.490Z,10.92
2023-05-02T05:20:16.429Z,10.98
2023-05-02T05:21:16.334Z,10.95
2023-05-02T05:22:16.253Z,11.00
2023-05-02T05:23:16.172Z,11.05
2023-05-02T05:24:16.089Z,11.14
2023-05-02T05:25:16.209Z,11.28
2023-05-02T05:26:15.927Z,11.34
2023-05-02T05:27:15.847Z,11.32
2023-05-02T05:28:15.784Z,11.41
2023-05-02T05:29:15.742Z,11.46
2023-05-02T05:30:15.618Z,11.47
2023-05-02T05:31:16.824Z,11.56
2023-05-02T05:32:15.520Z,11.54
2023-05-02T05:33:15.467Z,11.69
2023-05-02T05:34:15.297Z,11.76
2023-05-02T05:35:15.216Z,11.69
2023-05-02T05:36:15.150Z,11.75
2023-05-02T05:37:15.096Z,11.81
2023-05-02T05:38:14.972Z,11.81
2023-05-02T05:39:14.887Z,11.76
2023-05-02T05:40:14.809Z,11.81
2023-05-02T05:41:14.727Z,11.89
2023-05-02T05:42:14.654Z,11.90
2023-05-02T05:43:14.569Z,12.02
2023-05-02T05:44:14.495Z,11.98
2023-05-02T05:45:14.433Z,11.98
2023-05-02T05:46:14.329Z,12.00
2023-05-02T05:47:14.274Z,11.95
2023-05-02T05:48:14.266Z,11.98
2023-05-02T05:49:14.907Z,12.08
2023-05-02T05:50:14.043Z,12.13
2023-05-02T05:52:29.074Z,11.98
2023-05-02T05:53:26.354Z,11.95
2023-05-02T05:54:26.282Z,12.02
2023-05-02T05:55:26.200Z,11.95
2023-05-02T05:56:26.115Z,11.87
2023-05-02T05:57:26.237Z,11.95
2023-05-02T05:58:25.957Z,11.84
2023-05-02T05:59:25.876Z,12.00
2023-05-02T06:00:25.797Z,11.95
2023-05-02T06:01:25.716Z,11.98
2023-05-02T06:02:25.702Z,11.98
2023-05-02T06:03:25.642Z,11.94
2023-05-02T06:04:25.520Z,11.90
2023-05-02T06:05:25.404Z,11.97
2023-05-02T06:06:25.364Z,12.06
2023-05-02T06:07:25.244Z,12.12
2023-05-02T06:08:25.183Z,12.15
2023-05-02T06:09:25.088Z,12.24
2023-05-02T06:10:25.004Z,12.37
2023-05-02T06:11:25.028Z,12.30
2023-05-02T06:12:24.849Z,12.33
2023-05-02T06:13:24.868Z,12.27
2023-05-02T06:14:24.683Z,12.36
2023-05-02T06:15:24.625Z,12.31
2023-05-02T06:16:24.589Z,12.39
2023-05-02T06:17:24.465Z,12.36
2023-05-02T06:18:24.367Z,12.49
2023-05-02T06:19:24.292Z,12.53
2023-05-02T06:20:24.213Z,12.48
2023-05-02T06:21:24.137Z,12.55
2023-05-02T06:22:24.052Z,12.60
2023-05-02T06:23:23.977Z,12.56
2023-05-02T06:24:24.089Z,12.63
2023-05-02T06:25:24.165Z,12.56
2023-05-02T06:26:23.738Z,12.55
2023-05-02T06:27:23.655Z,12.63
2023-05-02T06:28:23.576Z,12.63
2023-05-02T06:29:23.501Z,12.84
2023-05-02T06:30:23.423Z,12.67
2023-05-02T06:31:23.385Z,12.70
2023-05-02T06:32:23.260Z,12.71
2023-05-02T06:33:26.216Z,12.74
2023-05-02T06:34:23.104Z,12.94
2023-05-02T06:35:23.023Z,12.81
2023-05-02T06:36:22.943Z,12.79
2023-05-02T06:37:22.895Z,12.85
2023-05-02T06:38:22.788Z,12.84
2023-05-02T06:39:22.711Z,12.70
2023-05-02T06:40:22.648Z,12.81
2023-05-02T06:41:22.556Z,12.81
2023-05-02T06:42:22.468Z,12.79
2023-05-02T06:43:22.396Z,12.86
2023-05-02T06:44:22.318Z,12.86
2023-05-02T06:45:22.236Z,12.92
2023-05-02T06:46:22.169Z,12.84
2023-05-02T06:47:22.135Z,12.86
2023-05-02T06:48:21.997Z,12.97
2023-05-02T06:49:21.922Z,13.02
2023-05-02T06:50:21.838Z,13.06
2023-05-02T06:51:21.762Z,13.06
2023-05-02T06:52:21.684Z,13.22
2023-05-02T06:53:21.601Z,13.21
2023-05-02T06:54:21.525Z,13.28
2023-05-02T06:55:21.449Z,13.27
2023-05-02T06:56:21.484Z,13.29
2023-05-02T06:57:21.290Z,13.25
2023-05-02T06:58:21.207Z,13.18
2023-05-02T06:59:21.134Z,13.15
2023-05-02T07:00:21.072Z,13.24
2023-05-02T07:01:21.009Z,13.32
2023-05-02T07:02:20.903Z,13.28
2023-05-02T07:03:20.822Z,13.43
2023-05-02T07:04:20.785Z,13.41
2023-05-02T07:05:21.016Z,13.48
2023-05-02T07:06:20.620Z,13.50
2023-05-02T07:07:20.535Z,13.52
2023-05-02T07:08:20.426Z,13.58
2023-05-02T07:09:20.350Z,13.59
2023-05-02T07:10:20.278Z,13.76
2023-05-02T07:11:20.201Z,13.76
2023-05-02T07:12:20.150Z,13.58
2023-05-02T07:13:20.036Z,13.65
2023-05-02T07:14:19.959Z,13.65
2023-05-02T07:15:19.885Z,13.73
2023-05-02T07:16:19.861Z,13.84
2023-05-02T07:17:19.723Z,13.84
2023-05-02T07:18:19.658Z,13.80
2023-05-02T07:19:19.765Z,13.86
2023-05-02T07:20:19.488Z,13.87
2023-05-02T07:21:19.422Z,13.80
2023-05-02T07:22:19.326Z,13.78
2023-05-02T07:23:19.702Z,13.77
2023-05-02T07:24:19.175Z,13.73
2023-05-02T07:25:19.094Z,13.71
2023-05-02T07:26:19.016Z,13.83
2023-05-02T07:27:18.937Z,13.80
2023-05-02T07:28:18.883Z,13.98
2023-05-02T07:29:18.794Z,13.87
2023-05-02T07:30:18.697Z,13.84
2023-05-02T07:31:19.121Z,13.98
2023-05-02T07:32:18.814Z,13.95
2023-05-02T07:33:18.519Z,14.02
2023-05-02T07:34:18.389Z,14.05
2023-05-02T07:35:18.316Z,14.14
2023-05-02T07:36:18.237Z,14.28
2023-05-02T07:37:18.163Z,14.38
2023-05-02T07:38:18.079Z,14.39
2023-05-02T07:39:18.004Z,14.39
2023-05-02T07:40:17.928Z,14.24
2023-05-02T07:41:17.850Z,14.27
2023-05-02T07:42:17.777Z,14.36
2023-05-02T07:43:17.689Z,14.27
2023-05-02T07:44:17.634Z,14.23
2023-05-02T07:45:17.571Z,14.20
2023-05-02T07:46:17.509Z,14.13
2023-05-02T07:47:17.384Z,14.20
2023-05-02T07:48:17.415Z,14.05
2023-05-02T07:49:17.224Z,13.98
2023-05-02T07:50:17.151Z,13.96
2023-05-02T07:51:17.072Z,14.13
2023-05-02T07:52:16.994Z,14.23
2023-05-02T07:53:16.929Z,14.20
2023-05-02T07:54:16.849Z,14.20
2023-05-02T07:55:16.762Z,14.10
2023-05-02T07:56:16.678Z,14.11
2023-05-02T07:57:16.605Z,14.14
2023-05-02T07:58:16.530Z,14.13
2023-05-02T07:59:16.450Z,14.01
2023-05-02T08:00:16.525Z,14.05
2023-05-02T08:01:16.292Z,14.02
2023-05-02T08:02:16.254Z,14.13
2023-05-02T08:03:16.319Z,14.28
2023-05-02T08:04:16.293Z,14.44
2023-05-02T08:05:16.194Z,14.53
2023-05-02T08:06:15.950Z,14.57
2023-05-02T08:07:16.026Z,14.59
2023-05-02T08:08:15.753Z,14.57
2023-05-02T08:09:15.674Z,14.72
2023-05-02T08:10:15.608Z,14.79
2023-05-02T08:11:15.529Z,14.85
2023-05-02T08:12:15.442Z,14.85
2023-05-02T08:13:15.363Z,14.91
2023-05-02T08:14:15.285Z,14.93
2023-05-02T08:15:15.208Z,15.10
2023-05-02T08:16:15.169Z,15.05
2023-05-02T08:17:15.054Z,15.05
2023-05-02T08:18:15.096Z,14.93
2023-05-02T08:19:14.907Z,14.95
2023-05-02T08:20:14.821Z,14.94
2023-05-02T08:21:14.745Z,15.08
2023-05-02T08:22:14.666Z,15.06
2023-05-02T08:23:14.596Z,15.01
2023-05-02T08:24:14.511Z,14.95
2023-05-02T08:25:14.445Z,15.02
2023-05-02T08:26:14.361Z,14.97
2023-05-02T08:27:14.286Z,14.97
2023-05-02T08:28:14.212Z,14.83
2023-05-02T08:29:14.153Z,14.64
2023-05-02T08:30:14.061Z,14.60
2023-05-02T08:31:13.990Z,14.61
2023-05-02T08:32:14.085Z,14.71
2023-05-02T08:33:13.866Z,14.80
2023-05-02T08:34:13.743Z,14.97
2023-05-02T08:35:13.666Z,14.87
2023-05-02T08:36:13.594Z,14.94
2023-05-02T08:37:13.518Z,14.93
2023-05-02T08:38:13.440Z,14.83
2023-05-02T08:39:13.361Z,14.71
2023-05-02T08:40:13.281Z,14.71
2023-05-02T08:41:13.208Z,14.69
2023-05-02T08:42:13.180Z,14.69
2023-05-02T08:43:13.152Z,14.74
2023-05-02T08:44:12.982Z,14.83
2023-05-02T08:45:14.113Z,14.93
2023-05-02T08:46:12.978Z,14.93
2023-05-02T08:47:12.867Z,15.13
2023-05-02T08:48:12.742Z,14.91
2023-05-02T08:49:12.596Z,14.74
2023-05-02T08:50:12.524Z,14.72
2023-05-02T08:51:12.445Z,14.71
2023-05-02T08:52:12.708Z,14.75
2023-05-02T08:53:12.292Z,14.72
2023-05-02T08:54:12.201Z,14.69
2023-05-02T08:55:12.123Z,14.74
2023-05-02T08:56:12.048Z,14.68
2023-05-02T08:57:11.973Z,14.59
2023-05-02T08:58:12.409Z,14.59
2023-05-02T08:59:11.816Z,14.60
2023-05-02T09:00:11.747Z,14.71
2023-05-02T09:01:11.779Z,14.56
2023-05-02T09:02:11.582Z,14.65
2023-05-02T09:03:11.592Z,14.56
2023-05-02T09:04:11.477Z,14.69
2023-05-02T09:05:11.354Z,14.75
2023-05-02T09:06:11.327Z,14.75
2023-05-02T09:07:11.196Z,14.74
2023-05-02T09:08:11.114Z,14.80
2023-05-02T09:09:11.047Z,14.72
2023-05-02T09:10:10.968Z,14.65
2023-05-02T09:11:10.899Z,14.79
2023-05-02T09:12:10.814Z,14.72
2023-05-02T09:13:11.015Z,14.83
2023-05-02T09:14:10.953Z,14.80
2023-05-02T09:15:10.598Z,14.78
2023-05-02T09:16:10.596Z,14.74
2023-05-02T09:17:10.438Z,14.85
2023-05-02T09:18:10.360Z,14.85
2023-05-02T09:19:10.266Z,14.80
2023-05-02T09:20:10.207Z,14.85
2023-05-02T09:21:10.108Z,14.88
2023-05-02T09:22:10.044Z,14.72
2023-05-02T09:23:09.958Z,14.59
2023-05-02T09:24:09.881Z,14.60
2023-05-02T09:25:10.206Z,14.60
2023-05-02T09:26:09.776Z,14.74
2023-05-02T09:27:09.649Z,14.85
2023-05-02T09:28:09.570Z,15.10
2023-05-02T09:29:09.501Z,15.23
2023-05-02T09:30:09.418Z,15.18
2023-05-02T09:31:09.462Z,15.16
2023-05-02T09:32:09.338Z,15.20
2023-05-02T09:33:09.240Z,15.21
2023-05-02T09:34:09.102Z,15.12
2023-05-02T09:35:09.032Z,15.15
2023-05-02T09:36:09.025Z,15.08
2023-05-02T09:37:08.885Z,15.18
2023-05-02T09:38:09.049Z,15.10
2023-05-02T09:39:08.729Z,15.08
2023-05-02T09:40:08.646Z,15.20
2023-05-02T09:41:08.572Z,15.15
2023-05-02T10:22:38.648Z,16.25
2023-05-02T10:23:38.696Z,16.30
2023-05-02T10:24:38.466Z,16.22
2023-05-02T10:25:38.395Z,16.35
2023-05-02T10:26:38.314Z,16.37
2023-05-02T10:27:38.240Z,16.62
2023-05-02T10:28:38.161Z,16.50
2023-05-02T10:29:38.089Z,16.57
2023-05-02T10:30:38.012Z,16.55
2023-05-02T10:31:37.956Z,16.29
2023-05-02T10:32:37.963Z,16.15
2023-05-02T10:33:37.791Z,16.07
2023-05-02T10:34:37.708Z,15.88
2023-05-02T10:35:37.649Z,15.85
2023-05-02T10:36:37.569Z,15.86
2023-05-02T10:37:37.482Z,15.92
2023-05-02T10:38:37.442Z,16.00
2023-05-02T10:39:37.332Z,15.99
2023-05-02T10:40:37.251Z,15.99
2023-05-02T10:41:37.181Z,15.97
2023-05-02T10:42:37.112Z,15.97
2023-05-02T10:43:37.028Z,15.83
2023-05-02T10:44:36.956Z,15.86
2023-05-02T10:45:36.957Z,15.91
2023-05-02T10:46:36.831Z,15.99
2023-05-02T10:47:36.752Z,16.06
2023-05-02T10:48:36.642Z,16.33
2023-05-02T10:49:36.571Z,16.34
2023-05-02T10:50:36.492Z,16.33
2023-05-02T10:51:36.415Z,16.57
2023-05-02T10:52:36.339Z,16.63
2023-05-02T10:53:36.270Z,16.75
2023-05-02T10:54:36.307Z,16.77
2023-05-02T10:55:36.114Z,16.73
2023-05-02T10:56:36.036Z,16.60
2023-05-02T10:57:35.964Z,16.73
2023-05-02T10:58:35.890Z,16.65
2023-05-02T10:59:35.814Z,16.81
2023-05-02T11:00:35.791Z,16.96
2023-05-02T11:01:35.658Z,16.92
2023-05-02T11:02:35.751Z,17.05
2023-05-02T11:03:35.561Z,17.13
2023-05-02T11:04:35.435Z,17.30
2023-05-02T11:05:35.362Z,17.32
2023-05-02T11:06:35.334Z,17.40
2023-05-02T11:07:35.209Z,17.33
2023-05-02T11:08:35.534Z,17.36
2023-05-02T11:09:35.069Z,17.26
2023-05-02T11:10:35.009Z,17.20
2023-05-02T11:11:34.915Z,17.51
2023-05-02T11:12:34.837Z,17.73
2023-05-02T11:13:34.773Z,17.73
2023-05-02T11:14:34.890Z,17.92
2023-05-02T11:15:34.615Z,18.13
2023-05-02T11:16:34.593Z,18.25
2023-05-02T11:17:34.589Z,17.98
2023-05-02T11:18:34.696Z,18.21
2023-05-02T11:19:34.326Z,18.25
2023-05-02T11:20:34.261Z,18.34
2023-05-02T11:21:34.178Z,18.31
2023-05-02T11:22:34.107Z,18.04
2023-05-02T11:23:34.051Z,18.04
2023-05-02T11:24:33.959Z,17.98
2023-05-02T11:25:33.884Z,18.35
2023-05-02T11:26:33.827Z,18.43
2023-05-02T11:29:11.259Z,18.46
2023-05-02T11:30:11.202Z,18.31
2023-05-02T11:31:11.119Z,18.40
2023-05-02T11:32:11.083Z,18.47
2023-05-02T11:33:11.003Z,18.65
2023-05-02T11:34:10.898Z,18.90
2023-05-02T11:35:10.827Z,18.64
2023-05-02T11:36:10.753Z,18.40
2023-05-02T11:37:10.679Z,18.27
2023-05-02T11:38:10.608Z,18.29
2023-05-02T11:39:10.532Z,18.22
2023-05-02T11:40:10.460Z,17.43
2023-05-02T11:41:10.388Z,17.17
2023-05-02T11:42:10.338Z,17.08
2023-05-02T11:43:10.241Z,17.23
2023-05-02T11:44:10.178Z,17.25
2023-05-02T11:45:10.098Z,17.25
2023-05-02T11:46:10.049Z,17.32
2023-05-02T11:47:09.993Z,17.25
2023-05-02T11:48:09.944Z,17.21
2023-05-02T11:49:11.054Z,17.07
2023-05-02T11:50:09.729Z,17.15
2023-05-02T11:51:09.663Z,17.13
2023-05-02T11:52:09.582Z,17.26
2023-05-02T11:53:09.504Z,17.05
2023-05-02T11:54:09.435Z,16.95
2023-05-02T11:56:09.298Z,16.99
2023-05-02T11:57:09.211Z,17.10
2023-05-02T11:58:09.157Z,16.96
2023-05-02T11:59:09.113Z,16.98
2023-05-02T12:00:08.989Z,17.03
2023-05-02T12:01:09.576Z,17.07
2023-05-02T12:02:08.918Z,17.05
2023-05-02T12:03:08.808Z,17.10
2023-05-02T12:20:59.706Z,22.71
2023-05-02T12:24:25.261Z,21.57
2023-05-02T12:25:25.192Z,20.91
2023-05-02T12:26:25.164Z,20.19
2023-05-02T12:27:25.055Z,19.43
2023-05-02T12:28:24.990Z,18.61
2023-05-02T12:29:24.916Z,18.59
2023-05-02T12:30:24.845Z,18.49
2023-05-02T12:31:24.864Z,18.16
2023-05-02T12:32:27.705Z,17.95
2023-05-02T12:33:24.638Z,17.77
2023-05-02T12:34:24.570Z,17.66
2023-05-02T12:35:24.500Z,17.66
2023-05-02T12:36:24.840Z,17.66
2023-05-02T12:37:24.360Z,17.70
2023-05-02T12:38:24.335Z,17.88
2023-05-02T12:39:28.054Z,17.91
2023-05-02T12:40:24.143Z,17.82
2023-05-02T12:41:24.072Z,17.85
2023-05-02T12:42:23.998Z,17.82
2023-05-02T12:43:23.927Z,17.98
2023-05-02T12:44:23.851Z,17.91
2023-05-02T12:45:23.789Z,17.95
2023-05-02T12:46:23.776Z,18.92
2023-05-02T12:47:23.747Z,19.65
2023-05-02T12:48:23.869Z,20.56
2023-05-02T12:49:23.492Z,20.98
2023-05-02T12:50:23.419Z,21.64
2023-05-02T12:51:23.345Z,22.17
2023-05-02T12:52:23.313Z,22.72
2023-05-02T12:53:23.208Z,23.04
2023-05-02T12:54:23.137Z,23.22
2023-05-02T12:55:23.067Z,22.81
2023-05-02T12:57:10.493Z,23.50
2023-05-02T12:58:10.423Z,23.14
2023-05-02T12:59:10.354Z,23.02
2023-05-02T13:00:13.359Z,22.71
2023-05-02T13:01:52.714Z,22.12
2023-05-02T13:02:52.796Z,22.04
2023-05-02T13:03:52.646Z,22.47
2023-05-02T13:04:52.662Z,22.65
2023-05-02T13:05:53.664Z,23.05
2023-05-02T13:06:52.462Z,23.05
2023-05-02T13:07:54.957Z,22.96
2023-05-02T13:08:52.255Z,22.22
2023-05-02T13:09:52.186Z,22.19
2023-05-02T13:10:52.124Z,22.49
2023-05-02T13:11:52.062Z,23.04
2023-05-02T13:12:51.999Z,23.09
2023-05-02T13:13:51.929Z,23.38
2023-05-02T13:14:51.882Z,23.70
2023-05-02T13:15:52.018Z,24.05
2023-05-02T13:16:51.827Z,24.17
2023-05-02T13:20:22.425Z,23.07
2023-05-02T13:24:22.483Z,23.49
2023-05-02T13:25:22.399Z,23.71
2023-05-02T13:26:22.332Z,23.71
2023-05-02T13:27:22.273Z,23.23
2023-05-02T13:28:22.215Z,23.46
2023-05-02T13:29:22.140Z,23.75
2023-05-02T13:30:22.081Z,24.22
2023-05-02T13:31:22.106Z,24.17
2023-05-02T13:32:22.092Z,23.93
2023-05-02T13:33:22.054Z,23.37
2023-05-02T13:34:21.825Z,22.08
2023-05-02T13:35:21.764Z,21.11
2023-05-02T13:36:21.710Z,20.76
2023-05-02T13:37:21.651Z,20.69
2023-05-02T13:38:21.579Z,20.61
2023-05-02T13:39:21.512Z,20.56
2023-05-02T13:43:37.444Z,19.90
2023-05-02T13:46:29.324Z,19.55
2023-05-02T13:47:29.303Z,19.57
2023-05-02T13:48:29.135Z,19.42
2023-05-02T13:49:29.129Z,19.39
2023-05-02T13:50:29.029Z,19.53
2023-05-02T13:52:11.417Z,19.45
2023-05-02T13:53:11.346Z,19.48
2023-05-02T13:54:11.275Z,19.65
2023-05-02T13:55:11.655Z,19.48
2023-05-02T13:56:11.140Z,19.33
2023-05-02T13:57:11.076Z,19.35
2023-05-02T14:02:19.907Z,23.20
2023-05-02T14:03:19.785Z,23.53
2023-05-02T14:04:21.507Z,23.20
2023-05-02T14:05:19.621Z,23.12
2023-05-02T14:36:58.455Z,17.15
2023-05-02T14:38:55.816Z,17.32
2023-05-02T14:39:55.728Z,17.36
2023-05-02T14:40:55.655Z,17.29
2023-05-02T14:41:55.595Z,17.38
2023-05-02T14:42:55.556Z,17.46
2023-05-02T14:44:57.496Z,17.30
2023-05-02T14:45:55.282Z,17.20
2023-05-02T14:46:55.216Z,17.20
2023-05-02T14:47:55.141Z,17.10
2023-05-02T14:48:55.063Z,17.26
2023-05-02T14:49:54.981Z,17.17
2023-05-02T14:50:55.356Z,17.18
2023-05-02T14:51:56.322Z,17.23
2023-05-02T14:52:54.776Z,17.17
2023-05-02T14:53:54.684Z,17.26
2023-05-02T14:54:57.229Z,17.18
2023-05-02T14:55:54.532Z,17.13
2023-05-02T14:56:54.530Z,17.02
2023-05-02T14:58:37.518Z,17.21
2023-05-02T14:59:37.286Z,17.17
2023-05-02T15:00:36.981Z,17.14
2023-05-02T15:01:38.464Z,17.23
2023-05-02T15:02:36.881Z,17.20
2023-05-02T15:03:49.177Z,17.18
2023-05-02T15:04:36.689Z,17.15
2023-05-02T15:05:36.609Z,17.08
2023-05-02T15:06:37.093Z,17.13
2023-05-02T15:07:36.454Z,17.26
2023-05-02T15:08:37.411Z,17.03
2023-05-02T15:09:36.290Z,17.26
2023-05-02T15:10:36.247Z,17.17
2023-05-02T15:11:36.132Z,17.18
2023-05-02T15:12:36.067Z,17.29
2023-05-02T15:13:35.979Z,17.33
2023-05-02T15:14:35.912Z,17.35
2023-05-02T15:15:35.827Z,17.44
2023-05-02T15:16:35.770Z,17.38
2023-05-02T15:17:35.681Z,17.36
2023-05-02T15:18:35.608Z,18.31
2023-05-02T15:19:35.535Z,18.86
2023-05-02T15:20:35.459Z,19.09
2023-05-02T15:21:35.397Z,18.97
2023-05-02T15:22:35.307Z,18.82
2023-05-02T15:23:35.231Z,18.59
2023-05-02T15:24:35.183Z,18.29
2023-05-02T15:26:35.005Z,17.98
2023-05-02T15:27:34.931Z,17.94
2023-05-02T15:28:34.868Z,17.79
2023-05-02T15:29:34.786Z,17.76
2023-05-02T15:30:34.714Z,17.76
2023-05-02T15:31:34.709Z,17.70
2023-05-02T15:32:34.635Z,17.70
2023-05-02T15:33:34.488Z,17.60
2023-05-02T15:34:34.417Z,17.51
2023-05-02T15:35:34.336Z,17.63
2023-05-02T15:36:34.269Z,17.89
2023-05-02T15:37:34.208Z,17.91
2023-05-02T15:38:34.117Z,17.92
2023-05-02T15:39:34.038Z,17.96
2023-05-02T15:40:33.985Z,17.95
2023-05-02T15:41:33.891Z,17.91
2023-05-02T15:42:34.865Z,17.94
2023-05-02T15:43:33.740Z,18.04
2023-05-02T15:44:33.666Z,18.03
2023-05-02T15:45:33.591Z,18.14
2023-05-02T15:46:33.596Z,18.40
2023-05-02T15:47:33.472Z,18.80
2023-05-02T15:48:33.399Z,19.24
2023-05-02T15:49:33.319Z,19.75
2023-05-02T15:50:36.853Z,20.27
2023-05-02T15:51:33.148Z,20.76
2023-05-02T15:52:33.073Z,20.87
2023-05-02T15:53:33.011Z,21.26
2023-05-02T15:54:32.934Z,21.08
2023-05-02T15:55:32.852Z,20.59
2023-05-02T16:48:54.636Z,17.18
2023-05-02T16:49:54.549Z,17.21
2023-05-02T16:51:51.959Z,17.26
2023-05-02T16:52:51.883Z,17.18
2023-05-02T16:53:51.807Z,17.26
2023-05-02T16:54:51.748Z,17.18
2023-05-02T16:55:51.664Z,17.07
2023-05-02T16:56:51.592Z,17.11
2023-05-02T16:57:51.508Z,17.05
2023-05-02T16:58:54.052Z,17.05
2023-05-02T16:59:51.361Z,16.84
2023-05-02T17:00:51.401Z,16.88
2023-05-02T17:01:51.236Z,16.73
2023-05-02T17:02:51.257Z,16.77
2023-05-02T17:03:51.203Z,16.75
2023-05-02T17:04:51.005Z,16.80
2023-05-02T17:05:50.898Z,16.81
2023-05-02T17:06:50.883Z,16.81
2023-05-02T17:07:50.747Z,16.88
2023-05-02T17:08:50.674Z,16.78
2023-05-02T17:09:50.595Z,16.84
2023-05-02T17:10:50.532Z,16.95
2023-05-02T17:11:50.444Z,16.98
2023-05-02T17:12:50.365Z,17.11
2023-05-02T17:13:50.287Z,17.03
2023-05-02T17:14:50.214Z,16.99
2023-05-02T17:15:50.150Z,16.95
2023-05-02T17:16:50.103Z,16.85
2023-05-02T17:17:50.013Z,16.88
2023-05-02T17:18:49.910Z,16.85
2023-05-02T17:19:49.832Z,16.90
2023-05-02T17:20:49.802Z,16.81
2023-05-02T17:21:49.688Z,16.80
2023-05-02T17:22:49.604Z,16.74
2023-05-02T17:23:49.523Z,16.60
2023-05-02T17:24:49.524Z,16.55
2023-05-02T17:25:49.370Z,16.42
2023-05-02T17:26:49.298Z,16.35
2023-05-02T17:27:49.223Z,16.35